KMLP - Mullan Pass
Updated: Wed, 14-Nov-2018 8:53pm PST
Overcast
Overcast
 Wind from WSW
Wind: WSW at 5 mph , 7 km/h
Temperature : 32°F , 0°C
Wind Chill : 27°F , -3°C
Dew Point : 27°F , -3°C
Humidity : 80%
Barometer : 30.25 inHg , 1024.4 hPa
Clouds : Overcast
Visibility : 10 miles , 16 km
2018/11/15 04:53 KMLP 150453Z AUTO 25004KT 10SM OVC008 00/M03 A3025 RMK AO2 SLP217 T00001028

 

KCOE - Coeur d Alene
Updated: Wed, 14-Nov-2018 8:56pm PST
Clear
Clear
 Wind from SW
Wind: SW at 5 mph , 7 km/h
Temperature : 34°F , 1°C
Wind Chill : 29°F , -2°C
Dew Point : 28°F , -2°C
Humidity : 81%
Barometer : 30.31 inHg , 1026.4 hPa
Clouds : Clear
Visibility : 10 miles , 16 km
2018/11/15 04:56 KCOE 150456Z AUTO 23004KT 10SM CLR 01/M02 A3031 RMK AO2 SLP302 T00111017 FZRANO

 

KLWS - Lewiston
Updated: Wed, 14-Nov-2018 8:56pm PST
Overcast
Overcast
 Wind from calm
Wind: Calm
Temperature : 46°F , 8°C
Dew Point : 34°F , 1°C
Humidity : 62%
Barometer : 30.33 inHg , 1027.1 hPa
Clouds : Overcast
Visibility : 10 miles , 16 km
2018/11/15 04:56 KLWS 150456Z 00000KT 10SM OVC050 08/01 A3033 RMK AO2 SLP280 T00780006

 

KGEG - Spokane Intl
Updated: Wed, 14-Nov-2018 8:53pm PST
Overcast
Overcast
 Wind from SSW
Wind: SSW at 6 mph , 9 km/h
Temperature : 34°F , 1°C
Wind Chill : 29°F , -2°C
Dew Point : 27°F , -3°C
Humidity : 75%
Barometer : 30.30 inHg , 1026.1 hPa
Clouds : Overcast
Visibility : 10 miles , 16 km
2018/11/15 04:53 KGEG 150453Z 20005KT 10SM FEW060 OVC150 01/M03 A3030 RMK AO2 SLP282 T00111028